Time;durP1;ratioP1;P1;durP2;ratioP2;P2;SDS_P1;SDS_P2;PMS_P1;PMS_P2;Temp;Humidity;BMP_temperature;BMP_pressure;BME280_temperature;BME280_humidity;BME280_pressure;Samples;Min_cycle;Max_cycle;Signal;HPM_P1;HPM_P2
2022/10/01 00:00:53;;;;;;;15.83;10.60;;;10.20;99.90;;;;;;5048604;28;20541;-62
2022/10/01 00:03:22;;;;;;;11.07;9.40;;;10.30;99.90;;;;;;5048823;28;21469;-62
2022/10/01 00:05:58;;;;;;;14.57;10.10;;;10.30;99.90;;;;;;5051243;28;20486;-62
2022/10/01 00:08:26;;;;;;;13.50;10.30;;;10.30;99.90;;;;;;5045165;28;20944;-62
2022/10/01 00:10:52;;;;;;;19.63;8.83;;;10.30;99.90;;;;;;5045641;28;20479;-62
2022/10/01 00:13:20;;;;;;;16.73;12.17;;;10.30;99.90;;;;;;5041252;28;20491;-62
2022/10/01 00:15:48;;;;;;;16.33;10.00;;;10.30;99.90;;;;;;5049033;28;20482;-62
2022/10/01 00:18:14;;;;;;;13.00;10.13;;;10.30;99.70;;;;;;5047070;28;20998;-62
2022/10/01 00:20:42;;;;;;;9.63;8.57;;;10.30;99.90;;;;;;5053260;28;20491;-62
2022/10/01 00:23:09;;;;;;;10.83;7.60;;;10.30;99.90;;;;;;5052791;28;20473;-62
2022/10/01 00:25:35;;;;;;;13.60;9.10;;;10.40;99.90;;;;;;5046039;28;20850;-62
2022/10/01 00:28:02;;;;;;;13.97;9.90;;;10.40;99.90;;;;;;5038623;28;20491;-62
2022/10/01 00:30:29;;;;;;;16.00;11.93;;;10.30;99.90;;;;;;5025149;28;20481;-62
2022/10/01 00:32:57;;;;;;;11.93;7.90;;;9.20;99.90;;;;;;5045723;28;20521;-62
2022/10/01 00:35:24;;;;;;;18.13;11.90;;;10.40;99.90;;;;;;5049842;28;21084;-62
2022/10/01 00:37:51;;;;;;;16.73;11.00;;;;;;;;;;5033248;28;21015;-62
2022/10/01 00:40:19;;;;;;;12.50;10.30;;;10.40;99.90;;;;;;5041148;28;20474;-62
2022/10/01 00:42:47;;;;;;;14.33;7.60;;;10.40;99.90;;;;;;5042288;28;20480;-62
2022/10/01 00:45:15;;;;;;;13.67;9.27;;;10.40;99.90;;;;;;5039863;28;20483;-62
2022/10/01 00:47:45;;;;;;;11.37;9.63;;;10.50;99.90;;;;;;5036876;28;20733;-62
2022/10/01 00:50:20;;;;;;;13.73;9.47;;;10.50;99.90;;;;;;5045592;28;20479;-62
2022/10/01 00:52:51;;;;;;;14.60;7.87;;;10.50;99.80;;;;;;5048469;28;20865;-62
2022/10/01 00:55:23;;;;;;;11.90;8.60;;;10.50;99.90;;;;;;5038199;28;20547;-62
2022/10/01 00:57:50;;;;;;;14.20;10.60;;;10.60;99.80;;;;;;5041591;28;21005;-62
2022/10/01 01:00:18;;;;;;;14.27;10.37;;;10.60;99.70;;;;;;5031408;28;20480;-62
2022/10/01 01:02:44;;;;;;;12.90;8.33;;;10.60;99.90;;;;;;5042533;28;20678;-62
2022/10/01 01:05:12;;;;;;;13.17;8.50;;;10.60;99.90;;;;;;5047942;28;20494;-62
2022/10/01 01:07:44;;;;;;;14.30;10.17;;;10.60;99.90;;;;;;5038776;28;20998;-61
2022/10/01 01:10:13;;;;;;;11.97;8.70;;;10.50;99.90;;;;;;5033782;28;20558;-62
2022/10/01 01:13:03;;;;;;;27.43;10.63;;;10.30;99.90;;;;;;5046568;28;20848;-63
2022/10/01 01:15:36;;;;;;;12.43;8.97;;;10.30;99.90;;;;;;5038263;28;20494;-62
2022/10/01 01:18:10;;;;;;;16.00;8.10;;;10.30;99.90;;;;;;5045069;28;21087;-63
2022/10/01 01:20:56;;;;;;;14.67;9.23;;;10.40;99.90;;;;;;5052124;28;20474;-62
2022/10/01 01:23:46;;;;;;;12.93;9.73;;;10.40;99.90;;;;;;5033647;28;20483;-62
2022/10/01 01:26:23;;;;;;;12.63;10.33;;;10.40;99.90;;;;;;5045562;28;21038;-62
2022/10/01 01:28:56;;;;;;;9.30;7.30;;;10.50;99.90;;;;;;5025645;28;20825;-63
2022/10/01 01:31:24;;;;;;;16.53;12.00;;;;;;;;;;5035481;28;20456;-62
2022/10/01 01:33:54;;;;;;;9.70;7.97;;;;;;;;;;5048853;28;20482;-62
2022/10/01 01:36:24;;;;;;;11.10;8.73;;;;;;;;;;5038880;28;20468;-62
2022/10/01 01:38:57;;;;;;;14.03;7.70;;;10.80;99.90;;;;;;5039679;28;21071;-63
2022/10/01 01:41:26;;;;;;;15.30;9.90;;;10.90;99.90;;;;;;5037777;28;20471;-63
2022/10/01 01:43:59;;;;;;;15.97;8.60;;;11.00;99.90;;;;;;5039696;28;20475;-62
2022/10/01 01:46:32;;;;;;;11.97;9.33;;;10.90;99.90;;;;;;5037220;28;20606;-62
2022/10/01 01:49:02;;;;;;;6.83;6.00;;;11.00;99.90;;;;;;5043273;28;20471;-63
2022/10/01 01:51:33;;;;;;;9.97;8.73;;;11.10;99.90;;;;;;5035351;28;21062;-62
2022/10/01 01:54:00;;;;;;;8.80;7.00;;;11.10;99.90;;;;;;5056252;28;20495;-63
2022/10/01 01:56:27;;;;;;;14.87;9.40;;;11.10;99.90;;;;;;5045371;28;20478;-62
2022/10/01 01:58:57;;;;;;;13.70;6.70;;;11.10;99.90;;;;;;5041869;28;20498;-63
2022/10/01 02:01:38;;;;;;;14.60;10.30;;;11.20;99.90;;;;;;5045898;28;20558;-62
2022/10/01 02:04:07;;;;;;;6.03;5.40;;;;;;;;;;5046946;28;20558;-63
2022/10/01 02:06:47;;;;;;;15.47;6.87;;;11.20;99.90;;;;;;5046226;28;20555;-63
2022/10/01 02:09:22;;;;;;;11.20;8.60;;;11.30;99.90;;;;;;5044344;28;20658;-62
2022/10/01 02:12:00;;;;;;;11.73;7.97;;;11.30;99.90;;;;;;5046450;28;20478;-62
2022/10/01 02:14:38;;;;;;;14.13;7.97;;;11.30;99.90;;;;;;5035462;28;20496;-63
2022/10/01 02:17:15;;;;;;;10.77;7.83;;;11.30;99.90;;;;;;5042428;28;20639;-62
2022/10/01 02:19:46;;;;;;;8.77;7.50;;;11.40;99.90;;;;;;5045924;28;20977;-63
2022/10/01 02:22:18;;;;;;;9.70;7.23;;;11.40;99.90;;;;;;5047209;28;20488;-62
2022/10/01 02:24:48;;;;;;;9.23;6.07;;;11.50;99.90;;;;;;5044308;28;20548;-62
2022/10/01 02:27:22;;;;;;;16.57;6.40;;;11.50;99.90;;;;;;5041799;28;20842;-62
2022/10/01 02:29:52;;;;;;;10.83;8.07;;;11.50;99.90;;;;;;5052276;28;20479;-63
2022/10/01 02:32:20;;;;;;;14.07;10.10;;;11.50;99.90;;;;;;5044097;28;20479;-63
2022/10/01 02:34:49;;;;;;;8.10;5.63;;;12.70;99.90;;;;;;5045990;28;21094;-62
2022/10/01 02:37:19;;;;;;;9.07;7.83;;;11.70;99.90;;;;;;5046201;28;20475;-62
2022/10/01 02:39:48;;;;;;;22.93;6.60;;;11.70;99.80;;;;;;5040843;28;20480;-62
2022/10/01 02:42:17;;;;;;;13.87;8.50;;;11.70;99.70;;;;;;5042475;28;20531;-62
2022/10/01 02:44:46;;;;;;;10.90;7.77;;;11.70;99.80;;;;;;5029310;28;20488;-62
2022/10/01 02:47:20;;;;;;;13.27;6.67;;;11.80;99.90;;;;;;5034895;28;20891;-62
2022/10/01 02:49:47;;;;;;;8.90;6.60;;;11.70;99.60;;;;;;5039901;28;20498;-62
2022/10/01 02:52:21;;;;;;;8.43;7.00;;;11.80;99.90;;;;;;5038638;28;20507;-62
2022/10/01 02:54:52;;;;;;;8.83;6.80;;;11.70;99.90;;;;;;5036242;28;20476;-62
2022/10/01 02:57:27;;;;;;;12.23;9.00;;;11.80;99.90;;;;;;5035001;28;20484;-62
2022/10/01 02:59:57;;;;;;;11.47;5.50;;;11.80;99.90;;;;;;5025195;28;20557;-62
2022/10/01 03:02:27;;;;;;;12.47;9.50;;;11.80;99.60;;;;;;5048736;28;20486;-63
2022/10/01 03:04:55;;;;;;;6.03;5.43;;;;;;;;;;5029954;28;20561;-63
2022/10/01 03:07:22;;;;;;;10.83;7.17;;;11.80;99.90;;;;;;5038062;28;20672;-61
2022/10/01 03:09:49;;;;;;;7.50;5.77;;;11.80;99.90;;;;;;5047111;28;20487;-62
2022/10/01 03:12:17;;;;;;;14.27;7.07;;;11.80;99.90;;;;;;5035023;28;20495;-62
2022/10/01 03:14:44;;;;;;;12.43;6.00;;;11.80;99.90;;;;;;5036741;28;20502;-62
2022/10/01 03:17:11;;;;;;;7.77;6.47;;;11.80;99.90;;;;;;5046472;28;20488;-62
2022/10/01 03:19:40;;;;;;;9.90;6.70;;;11.80;99.90;;;;;;5030546;28;20484;-62
2022/10/01 03:22:07;;;;;;;8.97;6.27;;;11.70;99.90;;;;;;5038537;28;20484;-61
2022/10/01 03:24:34;;;;;;;6.03;5.40;;;11.70;99.90;;;;;;5035886;28;20477;-63
2022/10/01 03:27:01;;;;;;;22.43;6.13;;;11.70;99.90;;;;;;5039424;28;20875;-63
2022/10/01 03:29:28;;;;;;;14.30;7.50;;;11.60;99.90;;;;;;5035601;28;21137;-63
2022/10/01 03:31:55;;;;;;;7.60;5.20;;;11.70;99.90;;;;;;5033463;28;20526;-62
2022/10/01 03:34:22;;;;;;;19.47;7.40;;;11.70;99.90;;;;;;5031905;28;20480;-63
2022/10/01 03:36:51;;;;;;;9.83;5.80;;;11.70;99.90;;;;;;5036394;28;20480;-62
2022/10/01 03:39:18;;;;;;;8.73;6.73;;;11.50;99.90;;;;;;5030653;28;20873;-62
2022/10/01 03:41:45;;;;;;;7.43;5.77;;;11.60;99.90;;;;;;5032854;28;20499;-62
2022/10/01 03:44:12;;;;;;;8.87;7.20;;;11.50;99.90;;;;;;5034917;28;20725;-62
2022/10/01 03:46:38;;;;;;;8.13;6.63;;;11.50;99.90;;;;;;5040340;28;20486;-62
2022/10/01 03:49:05;;;;;;;7.30;5.03;;;11.50;99.90;;;;;;5030886;28;20503;-62
2022/10/01 03:51:34;;;;;;;9.70;7.70;;;11.50;99.90;;;;;;5033337;28;20483;-62
2022/10/01 03:54:04;;;;;;;8.50;5.73;;;11.50;99.90;;;;;;5033574;28;20673;-62
2022/10/01 03:56:31;;;;;;;18.17;7.20;;;;;;;;;;5032927;28;20503;-62
2022/10/01 03:58:57;;;;;;;7.10;6.40;;;11.40;99.90;;;;;;5034096;28;20480;-63
2022/10/01 04:01:24;;;;;;;11.23;9.23;;;11.40;99.90;;;;;;5025753;28;20879;-62
2022/10/01 04:03:51;;;;;;;15.73;6.27;;;11.40;99.90;;;;;;5044085;28;20575;-62
2022/10/01 04:06:19;;;;;;;15.47;10.60;;;11.30;99.90;;;;;;5038633;28;20507;-62
2022/10/01 04:08:46;;;;;;;10.70;8.53;;;11.30;99.90;;;;;;5038495;28;20488;-62
2022/10/01 04:11:14;;;;;;;12.93;7.67;;;;;;;;;;5033726;28;20479;-62
2022/10/01 04:13:41;;;;;;;10.30;7.73;;;11.20;99.90;;;;;;5040367;28;20490;-62
2022/10/01 04:16:08;;;;;;;17.00;7.37;;;11.20;99.90;;;;;;5044610;28;20960;-62
2022/10/01 04:18:35;;;;;;;18.30;7.70;;;11.10;99.90;;;;;;5037958;28;20807;-62
2022/10/01 04:21:02;;;;;;;13.33;7.90;;;11.20;99.90;;;;;;5033210;28;20483;-62
2022/10/01 04:23:29;;;;;;;20.80;10.70;;;11.20;99.90;;;;;;5031116;28;20495;-62
2022/10/01 04:25:59;;;;;;;13.50;6.67;;;11.20;99.90;;;;;;5035211;28;20485;-62
2022/10/01 04:28:28;;;;;;;16.87;9.47;;;11.30;99.90;;;;;;5032770;28;21005;-62
2022/10/01 04:31:23;;;;;;;15.03;8.60;;;11.20;99.90;;;;;;5036214;28;21350;-62
2022/10/01 04:33:44;;;;;;;22.20;9.30;;;11.20;99.90;;;;;;5039571;28;20469;-62
2022/10/01 04:36:11;;;;;;;14.50;7.77;;;11.20;99.90;;;;;;5034514;28;20479;-62
2022/10/01 04:38:38;;;;;;;11.63;6.37;;;11.20;99.90;;;;;;5031065;28;20592;-63
2022/10/01 04:41:05;;;;;;;11.10;8.20;;;11.20;99.90;;;;;;5033153;28;20472;-63
2022/10/01 04:43:33;;;;;;;19.03;11.63;;;;;;;;;;5040162;28;20503;-63
2022/10/01 04:46:00;;;;;;;10.60;5.50;;;11.10;99.90;;;;;;5032930;28;20483;-63
2022/10/01 04:48:27;;;;;;;25.37;11.37;;;11.10;99.90;;;;;;5032737;28;20500;-62
2022/10/01 04:50:54;;;;;;;16.63;9.37;;;11.10;99.90;;;;;;5033439;28;20483;-61
2022/10/01 04:53:20;;;;;;;17.50;10.30;;;11.20;99.90;;;;;;5032644;28;20480;-64
2022/10/01 04:55:47;;;;;;;12.00;8.90;;;11.20;99.90;;;;;;5029877;28;20484;-62
2022/10/01 04:58:14;;;;;;;10.90;8.20;;;11.30;99.90;;;;;;5032416;28;20885;-62
2022/10/01 05:00:42;;;;;;;17.20;9.40;;;11.20;99.90;;;;;;5033947;28;20476;-63
2022/10/01 05:03:09;;;;;;;11.37;9.20;;;11.20;99.90;;;;;;5034420;28;20468;-62
2022/10/01 05:05:37;;;;;;;8.10;6.67;;;;;;;;;;5029874;28;20903;-63
2022/10/01 05:08:04;;;;;;;10.37;6.50;;;11.10;99.90;;;;;;5028070;28;20490;-62
2022/10/01 05:10:31;;;;;;;10.87;6.93;;;11.20;99.90;;;;;;5031473;28;20480;-63
2022/10/01 05:13:01;;;;;;;12.03;8.30;;;;;;;;;;5032885;28;20515;-63
2022/10/01 05:15:28;;;;;;;14.73;10.63;;;11.10;99.90;;;;;;5030361;28;20667;-62
2022/10/01 05:17:56;;;;;;;14.00;8.37;;;11.10;99.90;;;;;;5032676;28;20720;-63
2022/10/01 05:20:25;;;;;;;17.10;11.13;;;11.20;99.90;;;;;;5033571;28;20485;-62
2022/10/01 05:22:53;;;;;;;13.77;9.63;;;11.20;99.90;;;;;;5030589;28;20574;-62
2022/10/01 05:25:20;;;;;;;19.50;11.03;;;11.20;99.90;;;;;;5020123;28;20479;-62
2022/10/01 05:27:46;;;;;;;20.50;9.93;;;11.10;99.90;;;;;;5032319;28;20480;-62
2022/10/01 05:30:18;;;;;;;18.03;10.60;;;11.20;99.90;;;;;;5027816;28;20480;-62
2022/10/01 05:32:54;;;;;;;12.63;8.90;;;11.10;99.90;;;;;;5032524;28;20488;-61
2022/10/01 05:35:22;;;;;;;17.90;12.70;;;11.10;99.90;;;;;;5025273;28;20760;-62
2022/10/01 05:37:53;;;;;;;14.53;9.90;;;11.10;99.90;;;;;;5032536;28;20492;-62
2022/10/01 05:40:19;;;;;;;16.43;11.00;;;11.00;99.90;;;;;;5026275;28;20480;-61
2022/10/01 05:42:46;;;;;;;12.53;9.10;;;11.00;99.90;;;;;;5035781;28;20839;-63
2022/10/01 05:45:13;;;;;;;12.90;8.33;;;11.00;99.90;;;;;;5036079;28;20480;-62
2022/10/01 05:47:41;;;;;;;16.30;10.57;;;11.00;99.90;;;;;;5027701;28;20952;-62
2022/10/01 05:50:08;;;;;;;12.70;7.00;;;11.00;99.90;;;;;;5033284;28;20481;-62
2022/10/01 05:52:37;;;;;;;12.30;7.80;;;11.10;99.90;;;;;;5033915;28;20492;-62
2022/10/01 05:55:04;;;;;;;27.23;8.37;;;11.00;99.90;;;;;;5033112;28;20480;-62
2022/10/01 05:57:31;;;;;;;10.30;8.30;;;11.00;99.90;;;;;;5030221;28;20480;-62
2022/10/01 05:59:57;;;;;;;8.50;7.60;;;11.00;99.90;;;;;;5031851;28;20916;-62
2022/10/01 06:02:24;;;;;;;19.57;11.07;;;11.00;99.90;;;;;;5029841;28;20507;-62
2022/10/01 06:04:51;;;;;;;9.87;6.43;;;11.10;99.90;;;;;;5033512;28;20800;-62
2022/10/01 06:07:18;;;;;;;14.00;10.47;;;11.10;99.90;;;;;;5032087;28;20480;-62
2022/10/01 06:09:46;;;;;;;9.57;7.00;;;11.00;99.90;;;;;;5032943;28;20563;-62
2022/10/01 06:12:12;;;;;;;11.43;7.73;;;11.10;99.90;;;;;;5034543;28;20482;-62
2022/10/01 06:14:39;;;;;;;14.87;7.40;;;11.10;99.90;;;;;;5038824;28;20730;-62
2022/10/01 06:17:06;;;;;;;5.53;4.87;;;11.10;99.90;;;;;;5032328;28;20480;-62
2022/10/01 06:19:32;;;;;;;12.37;9.27;;;11.10;99.90;;;;;;5030218;28;20480;-62
2022/10/01 06:21:59;;;;;;;11.90;6.57;;;11.10;99.90;;;;;;5035757;28;20515;-62
2022/10/01 06:24:26;;;;;;;13.73;10.50;;;11.00;99.90;;;;;;5032299;28;20488;-61
2022/10/01 06:26:54;;;;;;;15.83;7.13;;;11.10;99.90;;;;;;5035822;28;20485;-62
2022/10/01 06:29:20;;;;;;;11.93;8.43;;;11.20;99.90;;;;;;5021599;28;20468;-62
2022/10/01 06:31:47;;;;;;;9.97;6.73;;;11.20;99.90;;;;;;5034895;28;20476;-61
2022/10/01 06:34:14;;;;;;;12.20;9.50;;;11.10;99.90;;;;;;5034749;28;20495;-62
2022/10/01 06:36:40;;;;;;;10.93;8.03;;;11.10;99.90;;;;;;5037608;28;20506;-61
2022/10/01 06:39:07;;;;;;;11.30;5.27;;;11.20;99.90;;;;;;5031441;28;20981;-61
2022/10/01 06:41:34;;;;;;;7.30;6.53;;;11.20;99.90;;;;;;5036809;28;20483;-62
2022/10/01 06:44:02;;;;;;;10.47;6.60;;;11.20;99.90;;;;;;5031317;28;20571;-62
2022/10/01 06:46:30;;;;;;;12.00;9.50;;;11.10;99.90;;;;;;5023754;28;20476;-61
2022/10/01 06:48:57;;;;;;;8.90;6.33;;;;;;;;;;5045038;28;20716;-62
2022/10/01 06:54:05;;;;;;;13.13;8.60;;;10.80;99.90;;;;;;5019899;28;20503;-63
2022/10/01 06:56:32;;;;;;;9.00;6.00;;;10.80;99.90;;;;;;5037450;28;20733;-62
2022/10/01 06:58:58;;;;;;;7.73;6.00;;;10.80;99.90;;;;;;5030604;28;20569;-62
2022/10/01 07:01:26;;;;;;;13.40;6.13;;;10.90;99.90;;;;;;5045608;28;20563;-62
2022/10/01 07:03:53;;;;;;;7.00;4.60;;;10.90;99.90;;;;;;5028949;28;20830;-62
2022/10/01 07:06:20;;;;;;;12.80;8.90;;;11.00;99.90;;;;;;5044986;28;21017;-62
2022/10/01 07:08:49;;;;;;;13.07;6.43;;;11.00;99.90;;;;;;5036017;28;20749;-61
2022/10/01 07:11:15;;;;;;;10.30;6.60;;;11.10;99.90;;;;;;5034484;28;21026;-61
2022/10/01 07:13:42;;;;;;;6.23;5.63;;;;;;;;;;5033175;28;20902;-61
2022/10/01 07:16:09;;;;;;;9.47;5.70;;;11.20;99.90;;;;;;5036179;28;20475;-61
2022/10/01 07:18:37;;;;;;;7.13;4.80;;;11.10;99.90;;;;;;5030107;28;20704;-60
2022/10/01 07:21:04;;;;;;;7.40;5.27;;;11.10;99.90;;;;;;5031284;28;20999;-61
2022/10/01 07:23:31;;;;;;;7.30;5.37;;;11.20;99.90;;;;;;5030601;28;20491;-60
2022/10/01 07:25:57;;;;;;;5.50;4.50;;;11.20;99.90;;;;;;5028235;28;20481;-60
2022/10/01 07:28:25;;;;;;;8.80;6.63;;;;;;;;;;5024603;28;20498;-62
2022/10/01 07:30:59;;;;;;;5.97;5.20;;;11.30;99.90;;;;;;5044097;28;20480;-62
2022/10/01 07:33:26;;;;;;;6.57;5.90;;;11.30;99.90;;;;;;5030701;28;20937;-61
2022/10/01 07:35:54;;;;;;;5.03;3.93;;;11.40;99.90;;;;;;5035795;28;21345;-61
2022/10/01 07:38:21;;;;;;;6.67;4.90;;;14.30;99.90;;;;;;5034955;28;20499;-61
2022/10/01 07:40:51;;;;;;;10.63;4.43;;;11.50;99.90;;;;;;5034864;28;20563;-62
2022/10/01 07:43:18;;;;;;;11.07;4.33;;;11.40;99.90;;;;;;5034211;28;20571;-62
2022/10/01 07:45:45;;;;;;;4.03;3.73;;;11.50;99.90;;;;;;5036708;28;20480;-61
2022/10/01 07:48:14;;;;;;;8.17;4.73;;;11.50;99.90;;;;;;5039021;28;20492;-61
2022/10/01 07:50:43;;;;;;;6.90;4.07;;;11.60;99.90;;;;;;5035902;28;21251;-61
2022/10/01 07:53:12;;;;;;;5.47;4.17;;;11.50;99.90;;;;;;5034318;28;20523;-61
2022/10/01 07:55:39;;;;;;;4.73;3.47;;;11.50;99.90;;;;;;5038218;28;20484;-62
2022/10/01 07:58:05;;;;;;;8.63;3.73;;;11.40;99.90;;;;;;5037307;28;20557;-61
2022/10/01 08:00:33;;;;;;;6.70;4.87;;;11.50;99.90;;;;;;5033436;28;20476;-62
2022/10/01 08:03:00;;;;;;;8.10;3.27;;;11.60;99.90;;;;;;5034114;28;20484;-61
2022/10/01 08:05:29;;;;;;;13.60;4.23;;;11.50;99.90;;;;;;5035405;28;20480;-61
2022/10/01 08:07:58;;;;;;;9.00;4.17;;;11.50;99.90;;;;;;5039032;28;20476;-62
2022/10/01 08:10:27;;;;;;;7.40;5.70;;;11.50;99.90;;;;;;5034810;28;20524;-61
2022/10/01 08:13:00;;;;;;;3.30;3.00;;;11.50;99.90;;;;;;5034714;28;20487;-61
2022/10/01 08:15:27;;;;;;;11.73;6.50;;;11.70;99.90;;;;;;5042145;28;20475;-61
2022/10/01 08:17:54;;;;;;;5.40;4.40;;;11.50;99.90;;;;;;5030972;28;20487;-62
2022/10/01 08:20:21;;;;;;;9.40;7.93;;;;;;;;;;5038247;28;20476;-61
2022/10/01 08:22:47;;;;;;;11.20;6.40;;;11.50;99.90;;;;;;5033429;28;20666;-61
2022/10/01 08:25:14;;;;;;;4.03;3.63;;;11.60;99.90;;;;;;5039837;28;20789;-62
2022/10/01 08:27:42;;;;;;;6.50;4.60;;;11.60;99.90;;;;;;5044852;28;20477;-62
2022/10/01 08:30:10;;;;;;;3.67;3.37;;;11.70;99.90;;;;;;5029672;28;21004;-61
2022/10/01 08:32:36;;;;;;;18.40;4.00;;;11.80;99.90;;;;;;5044668;28;20487;-61
2022/10/01 08:35:04;;;;;;;12.43;4.83;;;;;;;;;;5039470;28;20476;-61
2022/10/01 08:37:31;;;;;;;6.57;4.97;;;;;;;;;;5039641;28;20491;-62
2022/10/01 08:39:57;;;;;;;21.47;3.57;;;11.80;99.90;;;;;;5034039;28;20472;-61
2022/10/01 08:42:41;;;;;;;6.90;5.50;;;11.80;99.90;;;;;;5030706;28;20487;-62
2022/10/01 08:45:14;;;;;;;5.57;2.50;;;11.80;99.90;;;;;;5032717;28;20476;-63
2022/10/01 08:47:44;;;;;;;4.63;4.23;;;11.80;99.90;;;;;;5037590;28;20618;-61
2022/10/01 08:50:14;;;;;;;5.83;4.10;;;;;;;;;;5034337;28;21011;-61
2022/10/01 08:52:47;;;;;;;9.67;3.53;;;11.80;99.90;;;;;;5037269;28;20852;-61
2022/10/01 08:55:17;;;;;;;8.43;4.47;;;11.70;99.90;;;;;;5028443;28;20526;-61
2022/10/01 08:57:49;;;;;;;3.87;3.50;;;11.80;99.90;;;;;;5042987;28;20487;-61
2022/10/01 09:00:19;;;;;;;6.10;4.47;;;11.80;99.90;;;;;;5033643;28;20997;-61
2022/10/01 09:02:46;;;;;;;6.97;4.07;;;13.90;99.90;;;;;;5031500;28;20491;-62
2022/10/01 09:05:21;;;;;;;9.97;3.27;;;11.90;99.90;;;;;;5042738;28;20550;-61
2022/10/01 09:07:58;;;;;;;8.93;3.87;;;12.00;99.90;;;;;;5033510;28;20976;-62
2022/10/01 09:10:34;;;;;;;12.63;3.90;;;;;;;;;;5029345;28;20475;-62
2022/10/01 09:13:20;;;;;;;5.20;2.80;;;12.10;99.90;;;;;;5031178;28;21175;-62
2022/10/01 09:15:51;;;;;;;6.80;2.47;;;;;;;;;;5036550;28;20467;-61
2022/10/01 09:18:39;;;;;;;4.93;4.43;;;12.10;99.90;;;;;;5037125;28;21025;-61
2022/10/01 09:21:17;;;;;;;4.20;2.80;;;12.00;99.90;;;;;;5025187;28;20472;-61
2022/10/01 09:23:52;;;;;;;3.53;3.23;;;11.90;99.90;;;;;;5025792;28;20475;-62
2022/10/01 09:26:19;;;;;;;12.43;5.70;;;12.10;99.90;;;;;;5033061;28;21043;-62
2022/10/01 09:28:49;;;;;;;5.47;3.20;;;12.10;99.90;;;;;;5033294;28;21283;-62
2022/10/01 09:31:24;;;;;;;11.20;6.40;;;12.10;99.90;;;;;;5032144;28;20484;-61
2022/10/01 09:33:56;;;;;;;14.63;3.93;;;12.30;99.90;;;;;;5034338;28;20851;-61
2022/10/01 09:36:32;;;;;;;10.13;7.10;;;12.10;99.90;;;;;;5021320;28;20476;-62
2022/10/01 09:39:08;;;;;;;7.50;3.60;;;12.10;99.90;;;;;;5029509;28;21056;-61
2022/10/01 09:41:35;;;;;;;5.50;4.10;;;12.10;99.90;;;;;;5012593;28;20503;-61
2022/10/01 09:44:02;;;;;;;7.10;2.53;;;12.10;99.90;;;;;;5035232;28;20487;-62
2022/10/01 09:46:31;;;;;;;9.73;7.10;;;12.10;99.90;;;;;;5032171;28;20561;-62
2022/10/01 09:49:01;;;;;;;8.13;4.00;;;13.70;99.90;;;;;;5033104;28;20958;-62
2022/10/01 09:51:37;;;;;;;16.33;5.77;;;12.20;99.90;;;;;;5031465;28;20904;-61
2022/10/01 09:54:11;;;;;;;5.00;3.80;;;12.20;99.90;;;;;;5043629;28;20484;-62
2022/10/01 09:56:42;;;;;;;7.70;4.07;;;12.20;99.90;;;;;;5025642;28;20846;-62
2022/10/01 09:59:14;;;;;;;6.00;3.50;;;12.20;99.90;;;;;;5019382;28;20799;-61
2022/10/01 10:01:46;;;;;;;8.13;4.30;;;12.20;99.90;;;;;;5031561;28;20997;-62
2022/10/01 10:04:19;;;;;;;8.00;4.37;;;12.20;99.90;;;;;;5032157;28;20676;-62
2022/10/01 10:06:47;;;;;;;13.13;4.50;;;;;;;;;;5036700;28;20496;-62
2022/10/01 10:09:17;;;;;;;12.80;4.27;;;12.20;99.90;;;;;;5042419;28;20554;-61
2022/10/01 10:11:44;;;;;;;9.93;4.80;;;;;;;;;;5032880;28;20839;-60
2022/10/01 10:14:18;;;;;;;6.63;3.73;;;12.30;99.90;;;;;;5033180;28;20788;-62
2022/10/01 10:16:48;;;;;;;6.83;4.03;;;12.20;99.90;;;;;;5032700;28;20484;-62
2022/10/01 10:19:22;;;;;;;8.43;3.77;;;12.40;99.90;;;;;;5040492;28;20478;-61
2022/10/01 10:21:53;;;;;;;19.00;3.77;;;12.40;99.90;;;;;;5030803;28;20491;-61
2022/10/01 10:24:25;;;;;;;13.13;6.43;;;12.50;99.90;;;;;;5038282;28;20475;-62
2022/10/01 10:26:54;;;;;;;7.30;3.97;;;12.50;99.90;;;;;;5034511;28;21008;-61
2022/10/01 10:29:29;;;;;;;6.20;4.77;;;12.50;99.90;;;;;;5031317;28;20488;-61
2022/10/01 10:31:58;;;;;;;5.27;4.77;;;12.60;99.90;;;;;;5031433;28;20475;-61
2022/10/01 10:34:31;;;;;;;14.63;4.37;;;12.70;99.90;;;;;;5031178;28;20489;-61
2022/10/01 10:37:00;;;;;;;5.77;3.07;;;12.70;99.90;;;;;;5032869;28;20597;-61
2022/10/01 10:39:30;;;;;;;4.43;4.03;;;12.70;99.90;;;;;;5037986;28;20821;-61
2022/10/01 10:41:59;;;;;;;7.90;3.43;;;12.70;99.90;;;;;;5032779;28;20879;-61
2022/10/01 10:44:35;;;;;;;6.37;4.53;;;12.80;99.90;;;;;;5036606;28;21637;-60
2022/10/01 10:47:06;;;;;;;5.63;3.37;;;12.90;99.90;;;;;;5047273;28;21165;-60
2022/10/01 10:49:37;;;;;;;3.03;2.73;;;13.00;99.90;;;;;;5026990;28;21011;-61
2022/10/01 10:52:18;;;;;;;3.40;3.10;;;13.00;99.90;;;;;;5038406;28;20476;-61
2022/10/01 10:54:48;;;;;;;3.70;3.40;;;13.00;99.90;;;;;;5021238;28;20480;-61
2022/10/01 10:57:21;;;;;;;5.57;4.23;;;13.10;99.90;;;;;;5031211;28;20484;-61
2022/10/01 10:59:56;;;;;;;3.13;2.80;;;13.10;99.90;;;;;;5036478;28;20582;-61
2022/10/01 11:02:25;;;;;;;8.93;6.10;;;13.20;99.90;;;;;;5029432;28;20478;-61
2022/10/01 11:04:53;;;;;;;11.43;3.17;;;13.20;99.90;;;;;;5033519;28;20875;-60
2022/10/01 11:07:23;;;;;;;5.60;4.73;;;13.20;99.90;;;;;;5023721;28;21068;-61
2022/10/01 11:10:14;;;;;;;4.70;3.80;;;13.10;99.90;;;;;;5038087;28;20480;-62
2022/10/01 11:12:58;;;;;;;3.50;3.20;;;13.20;99.90;;;;;;5023301;28;20472;-61
2022/10/01 11:15:54;;;;;;;15.73;3.03;;;13.20;99.90;;;;;;5034044;28;20471;-63
2022/10/01 11:18:49;;;;;;;5.03;4.53;;;13.20;99.90;;;;;;5030325;28;20537;-62
2022/10/01 11:21:33;;;;;;;6.00;4.60;;;13.30;99.90;;;;;;5027482;28;20488;-62
2022/10/01 11:24:15;;;;;;;3.40;2.90;;;13.40;99.90;;;;;;5043114;28;20484;-63
2022/10/01 11:26:51;;;;;;;3.30;3.00;;;13.30;99.90;;;;;;5016528;28;20541;-63
2022/10/01 11:29:29;;;;;;;5.20;3.50;;;13.40;99.90;;;;;;5017604;28;20534;-63
2022/10/01 11:32:04;;;;;;;4.57;4.17;;;13.40;99.90;;;;;;5047629;28;20515;-63
2022/10/01 11:34:52;;;;;;;4.33;3.93;;;13.40;99.90;;;;;;5039589;28;20501;-63
2022/10/01 11:37:36;;;;;;;9.93;5.00;;;13.50;99.90;;;;;;5029536;28;20477;-63
2022/10/01 11:40:14;;;;;;;2.93;2.57;;;13.50;99.90;;;;;;5048910;28;21212;-62
2022/10/01 11:42:43;;;;;;;8.13;3.40;;;13.50;99.90;;;;;;5043564;28;20532;-63
2022/10/01 11:45:17;;;;;;;2.77;2.57;;;13.60;99.90;;;;;;5045319;28;20483;-64
2022/10/01 11:47:48;;;;;;;4.23;3.87;;;13.60;99.90;;;;;;5035625;28;20479;-63
2022/10/01 11:50:19;;;;;;;4.80;4.43;;;13.70;99.90;;;;;;5035581;28;20671;-63
2022/10/01 11:52:51;;;;;;;6.03;2.50;;;13.70;99.90;;;;;;5039511;28;20485;-63
2022/10/01 12:01:03;;;;;;;3.43;3.13;;;13.70;99.90;;;;;;5025585;28;20575;-62
2022/10/01 12:03:36;;;;;;;6.20;5.67;;;13.70;99.90;;;;;;5038720;28;20891;-62
2022/10/01 12:06:08;;;;;;;3.57;2.67;;;13.90;99.90;;;;;;5036257;28;20507;-62
2022/10/01 12:08:37;;;;;;;3.03;2.73;;;13.80;99.90;;;;;;5036718;28;20489;-61
2022/10/01 12:11:14;;;;;;;7.83;3.03;;;13.90;99.90;;;;;;5025891;28;20909;-62
2022/10/01 12:13:53;;;;;;;3.97;3.67;;;13.90;99.90;;;;;;5042369;28;20488;-61
2022/10/01 12:16:27;;;;;;;11.00;5.47;;;13.90;99.90;;;;;;5027256;28;20834;-61
2022/10/01 12:18:57;;;;;;;3.83;2.50;;;;;;;;;;5024452;28;20484;-61
2022/10/01 12:21:29;;;;;;;6.57;5.93;;;14.00;99.90;;;;;;5033339;28;20495;-62
2022/10/01 12:24:01;;;;;;;3.53;3.23;;;13.70;99.90;;;;;;5035713;28;20637;-61
2022/10/01 12:26:39;;;;;;;6.93;6.23;;;13.90;99.90;;;;;;5034238;28;20481;-63
2022/10/01 12:29:14;;;;;;;3.60;2.77;;;14.00;99.90;;;;;;5036943;28;20486;-62
2022/10/01 12:31:49;;;;;;;4.50;4.10;;;14.00;99.90;;;;;;5034821;28;20496;-61
2022/10/01 12:34:25;;;;;;;9.97;3.90;;;14.00;99.90;;;;;;5044304;28;20556;-62
2022/10/01 12:37:08;;;;;;;6.27;4.37;;;14.10;99.90;;;;;;5024082;28;20476;-63
2022/10/01 12:40:01;;;;;;;3.47;3.17;;;14.10;99.90;;;;;;5033196;28;20671;-62
2022/10/01 12:42:52;;;;;;;19.57;5.40;;;14.20;99.90;;;;;;5025758;28;20475;-62
2022/10/01 12:45:30;;;;;;;5.70;5.10;;;14.30;99.90;;;;;;5041995;28;21030;-62
2022/10/01 12:48:06;;;;;;;4.50;4.00;;;14.50;99.90;;;;;;5048252;28;21256;-61
2022/10/01 12:50:45;;;;;;;6.47;3.70;;;14.50;99.90;;;;;;5028221;28;20478;-62
2022/10/01 12:53:24;;;;;;;2.53;2.33;;;14.60;99.90;;;;;;5042845;28;20476;-61
2022/10/01 12:56:03;;;;;;;4.43;4.00;;;14.60;99.90;;;;;;5031214;28;20471;-61
2022/10/01 12:58:48;;;;;;;5.53;5.03;;;14.80;99.90;;;;;;5055128;28;20487;-61
2022/10/01 13:01:23;;;;;;;3.43;3.13;;;14.90;99.90;;;;;;5054733;28;20490;-62
2022/10/01 13:04:13;;;;;;;4.47;3.87;;;15.10;99.90;;;;;;5042758;28;20492;-62
2022/10/01 13:06:50;;;;;;;18.93;3.43;;;15.30;99.90;;;;;;5049940;28;20476;-61
2022/10/01 13:09:30;;;;;;;4.90;4.40;;;15.30;99.90;;;;;;5050991;28;20494;-63
2022/10/01 13:12:11;;;;;;;12.87;3.93;;;15.40;99.90;;;;;;5040415;28;20687;-63
2022/10/01 13:14:41;;;;;;;5.40;3.30;;;15.40;99.90;;;;;;5058514;28;20483;-62